COOK1: Arkansas River Nr Coolidge, KS

                                SHEF ID:       COOK1     ARKANSAS R NR COOLIDGE, KS
STATION TYPE:
Regulating: Stage = 8.00, Flow = 2041

PRECIP STAGE STAGE(2) RIV-FLOW WTR-TEMP CONDUCT BAT-LOAD
in ft ft cfs F umho/cm volt
Ccp-Rev Ccp-Rev Ccp-Rev Ccp-Rev Ccp-Rev Ccp-Rev Ccp-Rev
(America/Chicago)
04/27 00:00 0.00 1.86 ---- 19 57.33 6529 12.49
04/27 01:00 0.00 1.86 ---- 19 57.36 6572 12.47
04/27 02:00 0.00 1.84 ---- 18 57.25 6520 12.44
04/27 03:00 0.00 1.84 ---- 18 56.97 6554 12.43
04/27 04:00 0.00 1.83 ---- 18 56.39 6579 12.40
04/27 05:00 0.00 1.83 ---- 18 55.94 6547 12.37
04/27 06:00 0.00 1.83 ---- 18 55.51 6491 12.36
04/27 07:00 0.00 1.83 ---- 18 54.84 6525 12.35
04/27 08:00 0.00 1.83 ---- 18 54.23 6228 12.36
04/27 09:00 0.00 1.83 ---- 18 55.00 6660 12.77
04/27 10:00 0.00 1.83 ---- 18 57.72 6687 13.28
04/27 11:00 0.00 1.84 ---- 18 61.14 6683 13.96
04/27 12:00 0.00 1.85 ---- 19 65.41 6743 14.27
04/27 13:00 0.00 1.86 ---- 19 68.16 6782 14.31
04/27 14:00 0.00 1.87 ---- 20 71.78 6732 14.31
04/27 15:00 0.00 1.87 ---- 20 73.85 6673 14.17
04/27 16:00 0.00 1.86 ---- 19 76.10 6638 14.07
04/27 17:00 0.00 1.87 ---- 20 76.42 6646 13.95
04/27 18:00 0.00 1.87 ---- 20 75.33 6662 13.79
04/27 19:00 0.00 1.88 ---- 20 71.67 6667 13.62
04/27 20:00 0.00 1.86 ---- 19 68.13 6687 13.34
04/27 21:00 0.00 1.88 ---- 20 64.72 6705 12.65
04/27 22:00 0.00 1.89 ---- 21 61.74 6626 12.59
04/27 23:00 0.00 1.88 ---- 20 59.58 6602 12.55
Data processed at Tue 28Apr2026 04:30 GMT

NOTICE: If you are parsing this page

Please convert to using our Data API. Starting early 2026 we will be migrating to: https://water.usace.army.mil with modern pages rendered in JavaScript. When this migration completes you will no longer be able to scrape this page! CWMSDataAPI (CDA)

Timeseries IDs (TSIDs)

TSIDs used from left to right in the data table
COOL.Precip-Inc.Total.1Hour.1Hour.Ccp-Rev
COOL.Stage.Inst.1Hour.0.Ccp-Rev
COOL.Stage-Alt.Inst.1Hour.0.Ccp-Rev
COOL.Flow.Inst.1Hour.0.Ccp-Rev
COOL.Temp-Water.Inst.1Hour.0.Ccp-Rev
COOL.Cond.Inst.1Hour.0.Ccp-Rev
COOL.Volt-Battery Load.Inst.1Hour.0.Ccp-Rev

                            

All information presented herein is the property of the government of the United States of America and may be revised or deleted at any time without prior notice. Dissemination of this information without the expressed written consent of the Public Affairs Office, Tulsa District U.S. Army Corps of Engineers is strictly prohibited. These data are gathered electronically and, as presented, have NOT undergone any form of quality control. These data are NOT guaranteed to be valid or correct.